X  Luk Metar data     EKYT Aalborg Airport
Temperatur
27°C Temperatur
12°C Dugpunkt
39% Fugtighed



Vind
6 M/S
13 MPT
21 KM/T
11 KNOB



120°
ØSØ
Nuværende forhold

Klart Klart
Tryk 1014.92 (hPa) - 29.97 (inHg)
Sigt 6.2 (mil) - 10 (km)
Lufthavn
Lufthavnskode EKYT

Lokation: Aalborg Airport
Afstand: 54 (km)

Metar:
EKYT 241320Z AUTO 12011KT 080V140 9999 NCD 27/12 Q1015

Tid: 24-07-2021 15:20 CEST